Alexandria, Minnesota
Current Conditions -  °F | °C
As of 7:53 PM on Friday 28 Nov 2014 (Local Time) from KAXN Reporting Station
Overcast Overcast  
Wind Chill:   Ceiling: 1400
Heat Index: 17°   Visibility: 10mi
Dew Point: 13°   Wind: 12mph
Humidity: 84%   Direction: 120°ESE
Pressure: 29.71"   Gusts: NA
Location:  45.89°N, 95.37°W
Report Text: KAXN 290153Z AUTO 12010KT 10SM OVC014 M08/M11 A2971 RMK AO2 SLP092 T10831106
Loading
Personal Weather Stations






























Interactive Weather Map New forecast layout! Learn more

10-Day Weather Forecast

Advertisements
Track Severe Weather on mobile